Time;durP1;ratioP1;P1;durP2;ratioP2;P2;SDS_P1;SDS_P2;PMS_P1;PMS_P2;Temp;Humidity;BMP_temperature;BMP_pressure;BME280_temperature;BME280_humidity;BME280_pressure;Samples;Min_cycle;Max_cycle;Signal;HPM_P1;HPM_P2
2020/12/26 00:00:45;;;;;;;9.20;3.57;;;2.40;99.90;;;;;;5013868;28;20245;-82
2020/12/26 00:03:10;;;;;;;9.63;3.30;;;2.60;99.90;;;;;;5014333;28;20207;-82
2020/12/26 00:05:38;;;;;;;6.43;3.60;;;2.60;99.90;;;;;;5014133;28;20187;-81
2020/12/26 00:08:03;;;;;;;6.37;3.77;;;2.60;99.90;;;;;;5013526;28;20199;-82
2020/12/26 00:10:29;;;;;;;7.10;3.23;;;2.60;99.90;;;;;;5013820;28;20175;-82
2020/12/26 00:12:54;;;;;;;8.20;3.60;;;2.70;99.90;;;;;;5014404;28;20195;-83
2020/12/26 00:15:21;;;;;;;12.03;3.20;;;2.70;99.90;;;;;;5029991;28;20226;-82
2020/12/26 00:17:46;;;;;;;5.77;3.10;;;2.60;99.90;;;;;;4996772;28;20190;-82
2020/12/26 00:20:12;;;;;;;6.60;3.23;;;2.60;99.90;;;;;;5012676;28;20667;-81
2020/12/26 00:22:37;;;;;;;7.07;3.00;;;2.60;99.90;;;;;;5012912;28;20733;-83
2020/12/26 00:25:03;;;;;;;9.00;3.60;;;2.60;99.90;;;;;;5012467;28;20558;-82
2020/12/26 00:27:29;;;;;;;7.53;3.40;;;2.60;99.90;;;;;;4995644;28;20659;-82
2020/12/26 00:29:54;;;;;;;8.37;3.47;;;2.60;99.90;;;;;;4995205;28;20187;-81
2020/12/26 00:32:23;;;;;;;7.73;3.77;;;2.60;99.90;;;;;;5028272;28;20223;-82
2020/12/26 00:34:48;;;;;;;6.30;3.20;;;2.70;99.90;;;;;;4995374;28;20277;-81
2020/12/26 00:37:17;;;;;;;5.70;3.77;;;2.70;99.90;;;;;;5011094;28;20213;-80
2020/12/26 00:39:43;;;;;;;6.23;3.40;;;2.70;99.90;;;;;;4995983;28;20186;-83
2020/12/26 00:42:09;;;;;;;9.17;3.80;;;2.70;99.90;;;;;;5014331;28;20197;-82
2020/12/26 00:44:34;;;;;;;6.23;3.40;;;2.70;99.90;;;;;;5000144;28;20179;-84
2020/12/26 00:47:00;;;;;;;8.77;3.60;;;2.70;99.90;;;;;;5018067;28;20608;-81
2020/12/26 00:49:26;;;;;;;8.63;4.07;;;2.60;99.90;;;;;;5001246;28;20203;-80
2020/12/26 00:51:51;;;;;;;10.00;3.53;;;2.60;99.90;;;;;;5017717;28;20250;-82
2020/12/26 00:54:17;;;;;;;8.77;3.90;;;2.60;99.90;;;;;;5025514;23;20238;-80
2020/12/26 00:56:42;;;;;;;10.30;3.90;;;2.60;99.90;;;;;;5035426;28;20534;-80
2020/12/26 00:59:08;;;;;;;8.57;3.30;;;2.60;99.90;;;;;;5035416;28;20604;-79
2020/12/26 01:01:33;;;;;;;7.13;3.40;;;2.80;99.90;;;;;;5035358;28;20549;-80
2020/12/26 01:03:59;;;;;;;6.10;3.40;;;2.80;99.90;;;;;;5035000;28;20191;-79
2020/12/26 01:06:24;;;;;;;6.17;3.40;;;2.80;99.90;;;;;;5018931;28;20183;-80
2020/12/26 01:08:50;;;;;;;7.93;3.80;;;2.80;99.90;;;;;;5035502;28;20210;-79
2020/12/26 01:11:15;;;;;;;7.80;3.60;;;2.90;99.90;;;;;;5018838;28;20245;-82
2020/12/26 01:13:41;;;;;;;8.40;3.57;;;2.80;99.90;;;;;;5034632;28;20199;-80
2020/12/26 01:16:10;;;;;;;6.93;3.57;;;2.80;99.90;;;;;;5034521;28;20228;-82
2020/12/26 01:18:35;;;;;;;7.93;3.50;;;2.90;99.90;;;;;;5018421;28;20202;-81
2020/12/26 01:21:04;;;;;;;7.17;3.23;;;2.90;99.90;;;;;;5018156;28;20179;-79
2020/12/26 01:23:31;;;;;;;6.80;3.33;;;2.90;99.90;;;;;;5018302;28;20202;-81
2020/12/26 01:25:56;;;;;;;6.27;3.30;;;2.90;99.90;;;;;;5034460;28;20170;-80
2020/12/26 01:28:22;;;;;;;7.33;2.97;;;2.90;99.90;;;;;;5017944;28;20248;-82
2020/12/26 01:30:47;;;;;;;5.97;3.00;;;2.90;99.90;;;;;;5034293;28;20225;-81
2020/12/26 01:33:13;;;;;;;7.40;3.10;;;2.90;99.90;;;;;;5034292;28;20194;-80
2020/12/26 01:35:38;;;;;;;5.90;3.20;;;2.80;99.90;;;;;;5034320;28;20186;-80
2020/12/26 01:38:04;;;;;;;8.27;3.27;;;2.70;99.90;;;;;;5035015;28;20202;-83
2020/12/26 01:40:29;;;;;;;8.47;3.00;;;2.70;99.90;;;;;;5017902;28;20217;-80
2020/12/26 01:42:57;;;;;;;6.13;3.27;;;2.70;99.90;;;;;;5018621;28;20249;-80
2020/12/26 01:45:22;;;;;;;9.13;3.33;;;2.70;99.90;;;;;;5034623;28;20179;-81
2020/12/26 01:47:48;;;;;;;9.23;3.30;;;2.70;99.90;;;;;;5017899;28;20207;-83
2020/12/26 01:50:14;;;;;;;8.93;3.53;;;2.70;99.90;;;;;;5034177;28;20261;-79
2020/12/26 01:52:39;;;;;;;8.30;3.20;;;2.70;99.90;;;;;;5017260;28;20693;-80
2020/12/26 01:55:05;;;;;;;5.77;3.30;;;2.80;99.90;;;;;;5017350;28;20171;-80
2020/12/26 01:57:34;;;;;;;7.47;3.33;;;2.80;99.90;;;;;;5017358;28;20179;-83
2020/12/26 02:00:09;;;;;;;6.50;3.10;;;2.80;99.90;;;;;;5017059;28;20228;-80
2020/12/26 02:02:35;;;;;;;7.50;3.60;;;3.00;99.90;;;;;;5033733;28;20221;-80
2020/12/26 02:05:01;;;;;;;11.20;3.07;;;2.90;99.90;;;;;;5017247;28;20638;-81
2020/12/26 02:07:26;;;;;;;8.90;3.17;;;2.90;99.90;;;;;;5034205;28;20174;-80
2020/12/26 02:09:52;;;;;;;6.47;3.23;;;3.00;99.90;;;;;;5017609;28;20755;-80
2020/12/26 02:12:18;;;;;;;8.83;3.60;;;2.90;99.90;;;;;;5017377;28;20720;-80
2020/12/26 02:14:47;;;;;;;6.93;3.07;;;2.90;99.90;;;;;;5033350;28;20524;-78
2020/12/26 02:17:13;;;;;;;6.93;3.50;;;2.90;99.90;;;;;;5016889;28;20671;-80
2020/12/26 02:19:38;;;;;;;6.83;3.40;;;2.90;99.90;;;;;;5017033;28;20182;-80
2020/12/26 02:22:04;;;;;;;5.90;3.10;;;2.90;99.90;;;;;;5016597;28;20602;-79
2020/12/26 02:24:29;;;;;;;6.40;3.47;;;3.00;99.90;;;;;;5033289;28;20749;-79
2020/12/26 02:26:55;;;;;;;9.57;3.67;;;3.00;99.90;;;;;;5016493;28;20219;-81
2020/12/26 02:29:20;;;;;;;7.97;3.37;;;3.00;99.90;;;;;;5033084;28;20205;-80
2020/12/26 02:31:46;;;;;;;9.20;3.63;;;3.00;99.90;;;;;;5016384;28;20655;-79
2020/12/26 02:34:11;;;;;;;8.27;3.30;;;3.00;99.90;;;;;;5016460;28;20195;-79
2020/12/26 02:36:37;;;;;;;7.77;3.53;;;3.00;99.90;;;;;;5033091;28;20178;-78
2020/12/26 02:39:04;;;;;;;9.40;3.57;;;3.00;99.90;;;;;;5016888;28;20182;-78
2020/12/26 02:41:29;;;;;;;8.80;3.30;;;3.00;99.90;;;;;;5016490;28;20201;-82
2020/12/26 02:43:55;;;;;;;7.30;3.63;;;2.90;99.90;;;;;;5016162;28;20199;-78
2020/12/26 02:46:21;;;;;;;6.33;3.63;;;3.00;99.90;;;;;;5032818;28;20175;-79
2020/12/26 02:48:46;;;;;;;9.43;3.80;;;3.00;99.90;;;;;;5033007;28;20203;-79
2020/12/26 02:51:12;;;;;;;10.37;4.17;;;3.00;99.90;;;;;;5016356;28;20171;-79
2020/12/26 02:53:37;;;;;;;7.77;3.80;;;3.00;99.90;;;;;;5032607;28;20206;-78
2020/12/26 02:56:03;;;;;;;9.03;4.40;;;2.90;99.90;;;;;;5016085;28;20194;-80
2020/12/26 02:58:28;;;;;;;8.27;4.70;;;2.90;99.90;;;;;;5032779;28;20189;-80
2020/12/26 03:00:54;;;;;;;9.30;4.43;;;3.00;99.90;;;;;;5015984;28;20576;-81
2020/12/26 03:03:19;;;;;;;11.60;4.73;;;2.90;99.90;;;;;;5016255;28;20735;-79
2020/12/26 03:05:45;;;;;;;6.60;4.40;;;2.90;99.90;;;;;;5032425;28;20181;-79
2020/12/26 03:08:10;;;;;;;9.13;4.63;;;2.90;99.90;;;;;;5031580;28;20291;-79
2020/12/26 03:10:36;;;;;;;8.27;4.93;;;2.90;99.90;;;;;;5032473;28;20178;-81
2020/12/26 03:13:02;;;;;;;8.97;4.77;;;2.80;99.90;;;;;;5032527;28;20660;-78
2020/12/26 03:15:27;;;;;;;10.67;4.97;;;2.80;99.90;;;;;;5016080;28;20174;-78
2020/12/26 03:17:53;;;;;;;13.33;4.63;;;2.90;99.90;;;;;;5015871;28;20660;-79
2020/12/26 03:20:18;;;;;;;8.90;4.13;;;2.90;99.90;;;;;;5015837;28;20705;-82
2020/12/26 03:22:44;;;;;;;7.87;4.67;;;2.80;99.90;;;;;;5032258;28;20572;-78
2020/12/26 03:25:09;;;;;;;8.17;4.50;;;2.90;99.90;;;;;;5032252;28;20198;-78
2020/12/26 03:27:35;;;;;;;8.73;4.63;;;2.80;99.90;;;;;;5015551;28;20187;-79
2020/12/26 03:30:00;;;;;;;10.70;4.60;;;2.80;99.90;;;;;;5015504;28;20269;-78
2020/12/26 03:32:26;;;;;;;10.37;4.70;;;2.80;99.90;;;;;;5032028;28;20273;-79
2020/12/26 03:34:51;;;;;;;9.27;4.63;;;2.80;99.90;;;;;;5032272;28;20231;-78
2020/12/26 03:37:17;;;;;;;14.63;5.20;;;2.80;99.90;;;;;;5015288;28;20186;-81
2020/12/26 03:39:42;;;;;;;10.90;5.10;;;2.80;99.90;;;;;;5015340;28;20186;-79
2020/12/26 03:42:10;;;;;;;9.33;5.13;;;2.80;99.90;;;;;;5015751;28;20653;-80
2020/12/26 03:44:36;;;;;;;7.37;5.17;;;2.80;99.90;;;;;;5031918;28;20178;-79
2020/12/26 03:47:09;;;;;;;10.43;5.17;;;2.80;99.90;;;;;;5031657;28;20202;-79
2020/12/26 03:49:35;;;;;;;11.30;5.33;;;2.90;99.90;;;;;;5031620;28;20483;-78
2020/12/26 03:52:01;;;;;;;15.63;6.70;;;2.80;99.90;;;;;;5015150;28;20189;-80
2020/12/26 03:54:26;;;;;;;12.23;5.40;;;2.90;99.90;;;;;;5031411;28;20231;-79
2020/12/26 03:56:52;;;;;;;10.37;5.43;;;2.90;99.90;;;;;;5014831;28;20208;-80
2020/12/26 03:59:18;;;;;;;7.77;5.30;;;2.90;99.90;;;;;;5015177;28;20185;-80
2020/12/26 04:01:43;;;;;;;7.87;5.30;;;2.90;99.90;;;;;;5015110;28;20190;-82
2020/12/26 04:04:09;;;;;;;12.33;5.17;;;2.90;99.90;;;;;;5031463;28;20195;-80
2020/12/26 04:06:35;;;;;;;9.90;4.90;;;2.80;99.90;;;;;;5031915;28;20174;-78
2020/12/26 04:09:00;;;;;;;10.23;5.27;;;2.90;99.90;;;;;;5032113;28;20285;-80
2020/12/26 04:11:26;;;;;;;8.93;5.10;;;2.90;99.90;;;;;;5014726;28;20205;-81
2020/12/26 04:13:52;;;;;;;12.17;4.80;;;2.90;99.90;;;;;;5014754;28;20625;-81
2020/12/26 04:16:18;;;;;;;7.37;4.70;;;3.00;99.90;;;;;;5030824;28;20537;-78
2020/12/26 04:18:43;;;;;;;9.77;5.00;;;2.90;99.90;;;;;;5013893;28;20179;-79
2020/12/26 04:21:09;;;;;;;7.90;4.93;;;3.00;99.90;;;;;;5031255;28;20212;-79
2020/12/26 04:23:34;;;;;;;9.70;5.57;;;3.00;99.90;;;;;;5014819;28;20352;-79
2020/12/26 04:26:00;;;;;;;8.80;5.40;;;2.90;99.90;;;;;;5030998;28;20712;-79
2020/12/26 04:28:26;;;;;;;8.03;5.13;;;2.90;99.90;;;;;;5031415;28;20209;-83
2020/12/26 04:30:52;;;;;;;12.00;5.70;;;2.90;99.90;;;;;;5014615;28;20179;-79
2020/12/26 04:33:17;;;;;;;9.70;5.70;;;2.90;99.90;;;;;;5014503;28;20287;-78
2020/12/26 04:35:43;;;;;;;9.47;5.20;;;2.80;99.90;;;;;;5014663;28;20179;-79
2020/12/26 04:38:08;;;;;;;10.50;5.70;;;2.80;99.90;;;;;;5014766;28;20174;-80
2020/12/26 04:40:34;;;;;;;11.67;5.93;;;2.80;99.90;;;;;;5014670;28;20186;-78
2020/12/26 04:43:00;;;;;;;12.73;6.47;;;2.80;99.90;;;;;;5030860;28;20209;-79
2020/12/26 04:45:26;;;;;;;14.93;5.97;;;2.80;99.90;;;;;;5014512;28;20183;-78
2020/12/26 04:47:57;;;;;;;10.33;6.10;;;2.70;99.90;;;;;;5030930;28;20217;-79
2020/12/26 04:50:27;;;;;;;12.03;6.50;;;2.60;99.90;;;;;;5030900;28;20166;-78
2020/12/26 04:52:57;;;;;;;10.13;6.23;;;2.70;99.90;;;;;;5014032;28;20260;-80
2020/12/26 04:55:26;;;;;;;11.33;6.80;;;2.70;99.90;;;;;;5031030;28;20159;-78
2020/12/26 04:57:51;;;;;;;9.77;6.37;;;2.60;99.90;;;;;;5015936;28;20245;-80
2020/12/26 05:00:17;;;;;;;11.33;6.43;;;2.60;99.90;;;;;;5031216;28;20638;-80
2020/12/26 05:02:42;;;;;;;8.60;6.37;;;2.60;99.90;;;;;;5030845;28;20252;-79
2020/12/26 05:05:08;;;;;;;10.20;6.07;;;2.70;99.90;;;;;;5031190;28;20186;-79
2020/12/26 05:07:35;;;;;;;10.63;6.47;;;2.70;99.90;;;;;;5030798;28;20540;-79
2020/12/26 05:10:01;;;;;;;10.93;6.43;;;2.80;99.90;;;;;;5030893;28;20186;-80
2020/12/26 05:12:27;;;;;;;10.47;6.13;;;2.70;99.90;;;;;;5030503;28;20167;-78
2020/12/26 05:14:52;;;;;;;8.93;5.70;;;2.70;99.90;;;;;;5014459;28;20185;-79
2020/12/26 05:17:19;;;;;;;8.73;6.30;;;2.70;99.90;;;;;;5014694;28;20182;-79
2020/12/26 05:19:45;;;;;;;9.67;6.33;;;2.80;99.90;;;;;;5031144;28;20210;-80
2020/12/26 05:22:11;;;;;;;15.03;7.13;;;2.80;99.90;;;;;;5013974;28;20179;-77
2020/12/26 05:24:36;;;;;;;7.57;5.40;;;2.90;99.90;;;;;;5014332;28;20189;-80
2020/12/26 05:27:02;;;;;;;12.30;5.90;;;2.90;99.90;;;;;;5014479;28;20264;-80
2020/12/26 05:29:29;;;;;;;10.93;6.37;;;2.90;99.90;;;;;;5014287;28;20238;-82
2020/12/26 05:31:56;;;;;;;11.87;6.50;;;3.00;99.90;;;;;;5034299;28;20652;-79
2020/12/26 05:34:28;;;;;;;11.10;5.87;;;2.90;99.90;;;;;;5034244;28;20205;-80
2020/12/26 05:36:54;;;;;;;10.77;6.73;;;2.90;99.90;;;;;;5017573;28;20187;-79
2020/12/26 05:39:19;;;;;;;12.07;6.83;;;2.90;99.90;;;;;;5017349;28;20187;-81
2020/12/26 05:41:45;;;;;;;12.47;7.00;;;2.90;99.90;;;;;;5017575;28;20654;-78
2020/12/26 05:44:11;;;;;;;12.00;6.57;;;3.00;99.90;;;;;;5017758;28;20621;-79
2020/12/26 05:46:36;;;;;;;10.63;6.30;;;2.90;99.90;;;;;;5017294;28;20237;-78
2020/12/26 05:49:41;;;;;;;11.27;6.10;;;2.90;99.90;;;;;;5033815;28;20261;-79
2020/12/26 05:52:12;;;;;;;11.27;6.77;;;2.90;99.90;;;;;;4999721;28;20713;-79
2020/12/26 05:54:38;;;;;;;9.10;6.70;;;2.80;99.90;;;;;;5000444;28;20217;-79
2020/12/26 05:57:04;;;;;;;10.47;7.27;;;2.80;99.90;;;;;;5006811;28;20195;-78
2020/12/26 05:59:30;;;;;;;12.87;7.20;;;2.80;99.90;;;;;;5033876;28;20244;-80
2020/12/26 06:01:56;;;;;;;13.07;6.83;;;2.70;99.90;;;;;;5033615;28;20179;-79
2020/12/26 06:04:21;;;;;;;11.87;6.87;;;2.80;99.90;;;;;;5017707;28;20218;-80
2020/12/26 06:06:50;;;;;;;10.63;7.07;;;2.80;99.90;;;;;;5017510;28;20179;-79
2020/12/26 06:09:20;;;;;;;11.57;7.63;;;2.80;99.90;;;;;;5017378;28;20221;-79
2020/12/26 06:11:46;;;;;;;11.07;7.30;;;2.80;99.90;;;;;;5033835;28;20171;-80
2020/12/26 06:14:12;;;;;;;11.60;7.00;;;2.80;99.90;;;;;;5033916;28;20187;-80
2020/12/26 06:16:38;;;;;;;9.03;7.07;;;2.80;99.90;;;;;;5017207;28;20240;-79
2020/12/26 06:19:03;;;;;;;13.17;8.23;;;2.80;99.90;;;;;;5033526;28;20557;-79
2020/12/26 06:21:29;;;;;;;12.73;7.47;;;2.90;99.90;;;;;;5033758;28;20657;-80
2020/12/26 06:23:54;;;;;;;15.00;7.63;;;2.90;99.90;;;;;;5033065;28;20274;-83
2020/12/26 06:26:20;;;;;;;9.87;6.70;;;2.90;99.90;;;;;;5033491;28;20182;-79
2020/12/26 06:28:46;;;;;;;11.47;7.37;;;2.90;99.90;;;;;;5033596;28;20237;-80
2020/12/26 06:31:13;;;;;;;11.20;7.60;;;3.00;99.90;;;;;;5033972;28;20187;-79
2020/12/26 06:33:43;;;;;;;10.77;7.07;;;3.00;99.90;;;;;;5016406;28;20199;-79
2020/12/26 06:36:09;;;;;;;12.60;7.33;;;2.90;99.90;;;;;;5016701;28;20244;-79
2020/12/26 06:38:35;;;;;;;10.73;6.83;;;3.00;99.90;;;;;;5016624;28;20704;-81
2020/12/26 06:41:06;;;;;;;14.97;7.17;;;2.90;99.90;;;;;;5016184;28;20186;-79
2020/12/26 06:43:50;;;;;;;10.53;8.00;;;2.90;99.90;;;;;;5033103;28;20202;-79
2020/12/26 06:46:22;;;;;;;13.67;8.30;;;2.90;99.90;;;;;;5034277;28;20655;-79
2020/12/26 06:48:55;;;;;;;12.87;8.10;;;3.00;99.90;;;;;;5032749;28;20207;-79
2020/12/26 06:51:34;;;;;;;14.07;8.40;;;2.90;99.90;;;;;;5017070;28;20190;-79
2020/12/26 06:54:03;;;;;;;16.03;8.23;;;2.90;99.90;;;;;;5017329;28;20741;-82
2020/12/26 06:56:32;;;;;;;11.60;8.37;;;2.80;99.90;;;;;;5017245;28;20179;-80
2020/12/26 06:59:01;;;;;;;13.73;8.60;;;2.80;99.90;;;;;;5033467;28;20211;-82
2020/12/26 07:01:28;;;;;;;14.00;8.30;;;2.80;99.90;;;;;;5016906;28;20183;-80
2020/12/26 07:04:19;;;;;;;13.07;9.27;;;2.80;99.90;;;;;;5016401;28;20277;-85
2020/12/26 07:06:55;;;;;;;14.73;9.03;;;2.80;99.90;;;;;;5016582;28;20542;-81
2020/12/26 07:09:45;;;;;;;13.20;9.57;;;2.70;99.90;;;;;;5016768;28;20225;-81
2020/12/26 07:12:13;;;;;;;14.50;9.60;;;2.60;99.90;;;;;;5033158;28;20179;-82
2020/12/26 07:14:42;;;;;;;16.03;9.80;;;2.60;99.90;;;;;;5016862;28;20202;-83
2020/12/26 07:17:14;;;;;;;13.47;9.27;;;2.50;99.90;;;;;;5017344;28;20178;-80
2020/12/26 07:19:46;;;;;;;15.93;9.27;;;2.50;99.90;;;;;;5033341;28;20761;-80
2020/12/26 07:22:16;;;;;;;16.70;10.47;;;2.50;99.90;;;;;;5016125;28;20606;-81
2020/12/26 07:24:42;;;;;;;16.37;10.83;;;2.50;99.90;;;;;;5034787;28;20175;-82
2020/12/26 07:27:12;;;;;;;17.17;11.63;;;2.40;99.90;;;;;;5016701;28;20668;-84
2020/12/26 07:29:52;;;;;;;15.93;11.73;;;2.50;99.90;;;;;;5016974;28;20261;-80
2020/12/26 07:32:39;;;;;;;16.53;11.27;;;2.50;99.90;;;;;;5018076;28;20612;-80
2020/12/26 07:35:20;;;;;;;17.53;11.97;;;2.50;99.90;;;;;;5032982;28;20621;-80
2020/12/26 07:38:09;;;;;;;16.63;11.90;;;2.50;99.90;;;;;;5030091;28;20482;-81
2020/12/26 07:40:36;;;;;;;18.53;12.53;;;2.50;99.90;;;;;;5026782;28;20230;-82
2020/12/26 07:43:04;;;;;;;20.07;12.63;;;2.60;99.90;;;;;;5021580;28;20215;-81
2020/12/26 07:45:30;;;;;;;18.93;13.10;;;2.60;99.90;;;;;;5000352;28;20207;-80
2020/12/26 07:47:56;;;;;;;19.63;12.53;;;2.60;99.90;;;;;;5028820;28;20179;-80
2020/12/26 07:50:27;;;;;;;18.53;13.10;;;2.60;99.90;;;;;;5013945;28;20198;-80
2020/12/26 07:52:57;;;;;;;19.70;13.53;;;2.60;99.90;;;;;;5012638;28;20215;-80
2020/12/26 07:55:23;;;;;;;23.53;13.83;;;2.70;99.90;;;;;;5013020;28;20267;-81
2020/12/26 07:57:49;;;;;;;19.70;13.27;;;2.70;99.90;;;;;;5012642;28;20279;-81
2020/12/26 08:00:22;;;;;;;20.87;14.20;;;2.70;99.90;;;;;;5012034;28;20230;-80
2020/12/26 08:02:51;;;;;;;21.00;14.30;;;2.80;99.90;;;;;;5012453;28;20206;-80
2020/12/26 08:05:30;;;;;;;21.70;13.93;;;2.80;99.90;;;;;;5029599;28;20172;-83
2020/12/26 08:07:56;;;;;;;22.57;14.10;;;2.90;99.90;;;;;;5013081;28;20183;-84
2020/12/26 08:10:22;;;;;;;17.13;13.30;;;3.00;99.90;;;;;;5013617;28;20251;-80
2020/12/26 08:12:57;;;;;;;20.70;13.60;;;3.00;99.90;;;;;;5041043;28;20285;-83
2020/12/26 08:15:29;;;;;;;24.07;15.20;;;3.00;99.90;;;;;;5015975;28;20171;-84
2020/12/26 08:18:00;;;;;;;20.13;14.17;;;3.00;99.90;;;;;;4998794;28;20199;-82
2020/12/26 08:20:27;;;;;;;22.40;15.23;;;3.00;99.90;;;;;;5048549;28;20174;-84
2020/12/26 08:22:53;;;;;;;18.03;14.40;;;3.00;99.90;;;;;;5036297;28;20281;-81
2020/12/26 08:25:20;;;;;;;24.90;15.57;;;3.10;99.90;;;;;;5024310;28;20262;-80
2020/12/26 08:27:46;;;;;;;22.23;14.77;;;3.20;99.90;;;;;;5015719;28;20214;-81
2020/12/26 08:30:17;;;;;;;25.23;15.37;;;3.30;99.90;;;;;;5015994;28;20205;-81
2020/12/26 08:33:01;;;;;;;19.87;14.03;;;3.30;99.90;;;;;;5015749;28;20231;-82
2020/12/26 08:35:27;;;;;;;21.07;14.80;;;3.40;99.90;;;;;;5032925;28;20229;-82
2020/12/26 08:38:26;;;;;;;23.27;15.33;;;3.30;99.90;;;;;;5015584;28;20650;-81
2020/12/26 08:40:56;;;;;;;17.97;13.97;;;3.40;99.90;;;;;;5032639;28;20194;-81
2020/12/26 08:43:22;;;;;;;19.17;14.13;;;3.40;99.90;;;;;;5032106;28;20234;-80
2020/12/26 08:45:47;;;;;;;21.63;15.03;;;3.40;99.90;;;;;;5009201;28;20207;-83
2020/12/26 08:48:14;;;;;;;22.40;15.30;;;3.40;99.90;;;;;;5021895;28;20199;-84
2020/12/26 08:50:40;;;;;;;20.43;15.03;;;3.40;99.90;;;;;;5016076;28;20224;-81
2020/12/26 08:53:07;;;;;;;20.30;15.10;;;3.40;99.90;;;;;;5033348;28;20289;-86
2020/12/26 08:55:47;;;;;;;22.53;15.53;;;3.50;99.90;;;;;;5016231;28;20179;-87
2020/12/26 08:58:30;;;;;;;22.20;15.40;;;3.50;99.90;;;;;;5033040;28;20253;-87
2020/12/26 09:00:57;;;;;;;24.23;15.53;;;3.40;99.90;;;;;;5032421;28;20171;-84
2020/12/26 09:03:24;;;;;;;22.53;15.17;;;3.50;99.90;;;;;;5033741;28;20213;-85
2020/12/26 09:05:50;;;;;;;18.40;13.77;;;3.50;99.90;;;;;;5036170;28;20201;-85
2020/12/26 09:08:15;;;;;;;25.83;14.97;;;3.50;99.90;;;;;;5036782;28;20256;-88
2020/12/26 09:10:41;;;;;;;19.17;14.47;;;3.50;99.90;;;;;;5021690;28;20175;-85
2020/12/26 09:13:11;;;;;;;23.23;14.23;;;3.50;99.90;;;;;;5006646;28;20234;-79
2020/12/26 09:15:57;;;;;;;22.20;15.10;;;3.60;99.90;;;;;;4988849;28;20171;-87
2020/12/26 09:18:24;;;;;;;23.43;15.27;;;3.50;99.90;;;;;;5004930;28;20281;-78
2020/12/26 09:20:53;;;;;;;20.03;15.07;;;3.50;99.90;;;;;;5003585;28;20614;-81
2020/12/26 09:23:19;;;;;;;24.53;15.33;;;3.60;99.90;;;;;;5031676;28;20229;-79
2020/12/26 09:25:45;;;;;;;19.93;14.67;;;3.60;99.90;;;;;;5024111;28;20635;-80
2020/12/26 09:28:11;;;;;;;24.90;15.10;;;3.70;99.90;;;;;;5009455;28;20247;-79
2020/12/26 09:30:36;;;;;;;20.83;15.60;;;3.70;99.90;;;;;;5016418;28;20184;-77
2020/12/26 09:33:02;;;;;;;23.10;16.27;;;3.70;99.90;;;;;;5046336;28;20206;-77
2020/12/26 09:35:27;;;;;;;26.57;16.80;;;3.80;99.90;;;;;;5005539;28;20183;-79
2020/12/26 09:37:54;;;;;;;22.83;14.97;;;3.80;99.90;;;;;;5042565;28;20179;-78
2020/12/26 09:40:24;;;;;;;24.57;16.33;;;3.90;99.90;;;;;;5040794;28;20537;-78
2020/12/26 09:42:53;;;;;;;23.23;16.53;;;3.90;99.90;;;;;;5040928;28;20226;-80
2020/12/26 09:45:19;;;;;;;21.97;16.83;;;4.10;99.90;;;;;;5038673;28;20643;-81
2020/12/26 09:47:44;;;;;;;28.43;16.90;;;4.10;99.90;;;;;;5023708;28;20179;-80
2020/12/26 09:50:10;;;;;;;20.67;15.73;;;4.20;99.90;;;;;;5037805;28;20459;-79
2020/12/26 09:52:38;;;;;;;21.80;16.10;;;4.10;99.90;;;;;;5003416;28;20210;-80
2020/12/26 09:55:04;;;;;;;22.37;16.70;;;4.00;99.90;;;;;;5005032;28;20563;-79
2020/12/26 09:57:29;;;;;;;26.17;16.17;;;4.00;99.90;;;;;;5021050;28;20182;-78
2020/12/26 09:59:55;;;;;;;26.93;17.53;;;4.00;99.90;;;;;;5025256;28;20179;-78
2020/12/26 10:02:21;;;;;;;22.60;16.23;;;4.00;99.90;;;;;;5004020;28;20531;-78
2020/12/26 10:04:46;;;;;;;29.90;18.33;;;4.10;99.90;;;;;;5019911;28;20175;-80
2020/12/26 10:07:12;;;;;;;30.27;18.83;;;4.20;99.90;;;;;;5002992;28;20630;-79
2020/12/26 10:09:37;;;;;;;26.90;18.83;;;4.30;99.90;;;;;;5014647;28;20257;-79
2020/12/26 10:12:03;;;;;;;27.80;18.20;;;4.30;99.90;;;;;;5015522;28;20192;-78
2020/12/26 10:14:28;;;;;;;22.20;15.20;;;4.30;99.90;;;;;;5016713;28;20199;-80
2020/12/26 10:16:54;;;;;;;25.30;17.83;;;4.40;99.90;;;;;;5015276;28;20188;-79
2020/12/26 10:19:19;;;;;;;26.13;18.30;;;4.50;99.90;;;;;;4999481;28;20329;-79
2020/12/26 10:21:51;;;;;;;23.57;14.37;;;4.50;99.90;;;;;;5019670;28;20211;-81
2020/12/26 10:24:17;;;;;;;23.27;16.37;;;4.60;99.90;;;;;;5020280;28;20302;-79
2020/12/26 10:26:43;;;;;;;26.13;17.10;;;4.50;99.90;;;;;;5014682;28;20179;-80
2020/12/26 10:29:08;;;;;;;21.63;15.33;;;4.50;99.90;;;;;;4998598;28;20221;-79
2020/12/26 10:31:34;;;;;;;16.30;12.53;;;4.50;99.90;;;;;;5001787;28;20473;-78
2020/12/26 10:33:59;;;;;;;22.67;13.40;;;4.30;99.90;;;;;;5020253;28;20187;-79
2020/12/26 10:36:25;;;;;;;22.27;15.93;;;4.20;99.90;;;;;;5004028;28;20270;-81
2020/12/26 10:38:50;;;;;;;21.93;16.00;;;4.20;99.90;;;;;;5002162;28;20231;-79
2020/12/26 10:41:16;;;;;;;20.23;14.63;;;4.30;99.90;;;;;;5019679;28;20183;-78
2020/12/26 10:43:41;;;;;;;20.23;14.37;;;4.30;99.90;;;;;;5019068;28;20213;-77
2020/12/26 10:46:07;;;;;;;18.67;12.80;;;4.30;99.90;;;;;;5018580;28;20188;-79
2020/12/26 10:48:32;;;;;;;22.53;15.40;;;4.30;99.90;;;;;;5036175;28;20206;-80
2020/12/26 10:50:58;;;;;;;20.47;15.53;;;4.30;99.90;;;;;;5035487;28;20266;-80
2020/12/26 10:53:23;;;;;;;27.07;15.67;;;4.40;99.90;;;;;;5018010;28;20313;-79
2020/12/26 10:55:49;;;;;;;22.37;15.50;;;4.40;99.90;;;;;;5019119;28;20262;-79
2020/12/26 10:58:14;;;;;;;18.43;14.73;;;4.50;99.90;;;;;;5001989;28;20700;-80
2020/12/26 11:00:40;;;;;;;20.47;15.57;;;4.50;99.90;;;;;;5019522;28;20183;-80
2020/12/26 11:03:05;;;;;;;21.03;14.27;;;4.60;99.90;;;;;;5018955;28;20285;-80
2020/12/26 11:05:31;;;;;;;20.90;14.67;;;4.60;99.90;;;;;;5020967;28;20189;-81
2020/12/26 11:07:57;;;;;;;20.50;13.53;;;4.70;99.90;;;;;;5022103;28;20175;-82
2020/12/26 11:10:22;;;;;;;19.13;13.07;;;4.70;99.90;;;;;;5025386;28;20198;-79
2020/12/26 11:12:48;;;;;;;19.87;13.53;;;4.80;99.90;;;;;;5040187;28;20560;-80
2020/12/26 11:15:13;;;;;;;18.13;12.30;;;4.90;99.90;;;;;;5023127;28;20642;-80
2020/12/26 11:17:39;;;;;;;18.10;12.93;;;4.90;99.90;;;;;;5023904;28;20182;-80
2020/12/26 11:20:04;;;;;;;15.97;10.60;;;4.90;99.90;;;;;;5005384;28;20270;-79
2020/12/26 11:22:30;;;;;;;17.20;13.17;;;4.80;99.90;;;;;;5000337;28;20203;-79
2020/12/26 11:24:55;;;;;;;15.37;11.53;;;4.80;99.90;;;;;;5034362;28;20186;-80
2020/12/26 11:27:21;;;;;;;17.33;11.90;;;4.70;99.90;;;;;;5032874;28;20178;-81
2020/12/26 11:29:47;;;;;;;17.50;11.53;;;4.80;99.90;;;;;;5016290;28;20233;-81
2020/12/26 11:32:12;;;;;;;14.23;11.60;;;4.90;99.90;;;;;;5016165;28;20657;-81
2020/12/26 11:34:38;;;;;;;14.43;10.83;;;4.90;99.90;;;;;;5032441;28;20223;-81
2020/12/26 11:37:08;;;;;;;17.33;11.30;;;4.90;99.90;;;;;;5015674;28;20254;-80
2020/12/26 11:39:34;;;;;;;13.53;10.20;;;4.90;99.90;;;;;;5018591;28;20178;-81
2020/12/26 11:42:00;;;;;;;15.77;10.20;;;4.90;99.90;;;;;;5038814;28;20179;-79
2020/12/26 11:44:25;;;;;;;13.73;9.47;;;5.10;99.90;;;;;;5002431;28;20213;-79
2020/12/26 11:46:51;;;;;;;13.77;9.40;;;5.10;99.90;;;;;;5015556;28;20191;-78
2020/12/26 11:49:20;;;;;;;14.23;9.00;;;5.00;99.90;;;;;;4998174;28;20205;-77
2020/12/26 11:51:46;;;;;;;12.57;8.97;;;4.90;99.90;;;;;;4998331;28;20186;-80
2020/12/26 11:54:11;;;;;;;14.63;7.90;;;4.90;99.90;;;;;;5014104;28;20214;-79
2020/12/26 11:56:37;;;;;;;10.00;7.27;;;4.90;99.90;;;;;;4997935;28;20181;-80
2020/12/26 11:59:02;;;;;;;14.57;8.47;;;5.00;99.90;;;;;;5014082;28;20283;-78
2020/12/26 12:01:29;;;;;;;11.40;8.40;;;4.90;99.90;;;;;;4997225;28;20191;-78
2020/12/26 12:03:54;;;;;;;13.73;8.73;;;4.80;99.90;;;;;;4999776;28;20213;-81
2020/12/26 12:06:20;;;;;;;14.07;8.03;;;4.90;99.90;;;;;;5001192;28;20187;-79
2020/12/26 12:08:45;;;;;;;14.83;8.13;;;4.90;99.90;;;;;;5034451;28;20210;-78
2020/12/26 12:11:11;;;;;;;11.80;7.93;;;4.90;99.90;;;;;;5034278;28;20192;-81
2020/12/26 12:13:37;;;;;;;11.20;7.63;;;4.90;99.90;;;;;;5034024;28;20561;-79
2020/12/26 12:16:03;;;;;;;10.73;7.63;;;4.80;99.90;;;;;;5017067;28;20219;-78
2020/12/26 12:18:28;;;;;;;14.53;8.30;;;4.70;99.90;;;;;;5033890;28;20185;-79
2020/12/26 12:20:54;;;;;;;13.13;8.57;;;4.80;99.90;;;;;;5017069;28;20210;-78
2020/12/26 12:23:19;;;;;;;13.87;8.27;;;4.80;99.90;;;;;;5033449;28;20234;-79
2020/12/26 12:25:45;;;;;;;12.77;7.70;;;4.80;99.90;;;;;;5034316;28;20182;-80
2020/12/26 12:28:10;;;;;;;12.13;7.33;;;4.80;99.90;;;;;;5017889;28;20206;-79
2020/12/26 12:30:36;;;;;;;9.73;7.07;;;4.80;99.90;;;;;;5019656;28;20174;-79
2020/12/26 12:33:01;;;;;;;10.70;6.63;;;4.80;99.90;;;;;;5033743;28;20265;-80
2020/12/26 12:35:27;;;;;;;11.43;7.10;;;4.80;99.90;;;;;;5049989;28;20175;-80
2020/12/26 12:37:52;;;;;;;12.23;7.37;;;4.80;99.90;;;;;;5050896;28;20175;-80
2020/12/26 12:40:19;;;;;;;12.13;7.30;;;4.80;99.90;;;;;;5036310;28;20175;-79
2020/12/26 12:42:45;;;;;;;12.07;6.93;;;4.90;99.90;;;;;;5054646;28;20194;-79
2020/12/26 12:45:10;;;;;;;14.93;7.43;;;4.90;99.90;;;;;;5038171;28;20269;-78